Flight Track Log - Related Links

Times and Time Zones

All times are in EST time to prevent confusion due to time zone crossing. See the SWA2749 flight status page for this flight to view local times or setup timezone preferences in your user account.

Time Position Orientation Groundspeed Altitude Reporting Facility
EST Latitude Longitude Course Direction KTS MPH feet Rate Location/Type
Sun 17:39:05 39.1833 -76.7500 195° South 163 188 4,100  Level Potomac TRACON
Sun 17:40:11 39.2000 -76.8333 284° West 226 260 7,800 3,571 Climbing Potomac TRACON
Sun 17:41:11 39.2167 -76.9167 284° West 252 290 11,600 3,250 Climbing Potomac TRACON
Sun 17:42:11 39.2167 -77.0167 270° West 278 320 14,300 2,950 Climbing Potomac TRACON
Sun 17:43:11 39.1833 -77.1167 247° West 353 406 17,500 2,800 Climbing Potomac TRACON
Sun 17:44:00 38.9907 -77.3198 195° South  Level FlightAware Approximate
Sun 17:44:11 39.0833 -77.1833 207° Southwest 410 472 19,900  Level Potomac TRACON
Sun 17:45:12 38.9667 -77.2333 198° South 434 499 22,500 1,476 Climbing Potomac TRACON
Sun 17:46:17 38.8500 -77.3000 204° Southwest 455 524 23,000 238 Climbing Potomac TRACON
Sun 17:47:18 38.7333 -77.3667 204° Southwest 437 503 23,000  Level Potomac TRACON
Sun 17:48:18 38.6333 -77.4333 208° Southwest 435 501 23,000  Level Potomac TRACON
Sun 17:48:44 38.5756 -77.4667 204° Southwest 439 505 23,000  Level Washington Center
Sun 17:49:41 38.4706 -77.5250 204° Southwest 454 522 23,000 1,424 Level Washington Center
Sun 17:50:42 38.3692 -77.6044 212° Southwest 460 529 25,800 2,311 Climbing Washington Center
Sun 17:51:43 38.2778 -77.7025 220° Southwest 442 509 27,700 2,083 Climbing Washington Center
Sun 17:52:43 38.1864 -77.7975 219° Southwest 442 509 30,000 2,350 Climbing Washington Center
Sun 17:53:43 38.0992 -77.8875 219° Southwest 429 494 32,400 2,034 Climbing Washington Center
Sun 17:54:41 38.0353 -77.9592 221° Southwest 412 474 34,000 807 Climbing Washington Center
Sun 17:55:42 37.9414 -78.0564 219° Southwest 402 463 34,000  Level Washington Center
Sun 17:56:43 37.8583 -78.1431 219° Southwest 397 457 34,000  Level Washington Center
Sun 17:57:43 37.7792 -78.2350 223° Southwest 391 450 34,000  Level Washington Center
Sun 17:58:41 37.6917 -78.3211 218° Southwest 391 450 34,000 1,563 Level Washington Center
Sun 17:59:42 37.6019 -78.4122 219° Southwest 386 444 37,100 1,967 Climbing Washington Center
Sun 18:00:43 37.5292 -78.4881 220° Southwest 373 429 38,000 454 Climbing Washington Center
Sun 18:01:41 37.4503 -78.5661 218° Southwest 360 414 38,000  Level Washington Center
Sun 18:02:42 37.3753 -78.6469 221° Southwest 360 414 38,000  Level Washington Center
Sun 18:03:43 37.2961 -78.7222 217° Southwest 360 414 38,000  Level Washington Center
Sun 18:04:43 37.2272 -78.7950 220° Southwest 360 414 38,000  Level Washington Center
Sun 18:05:44 37.1481 -78.8750 219° Southwest 360 414 38,000  Level Washington Center
Sun 18:06:41 37.0706 -78.9550 219° Southwest 360 414 38,000  Level Washington Center
Sun 18:07:41 36.9911 -79.0347 219° Southwest 365 420 38,000  Level Washington Center
Sun 18:08:42 36.9094 -79.1169 219° Southwest 365 420 38,000  Level Washington Center
Sun 18:09:42 36.8319 -79.1964 219° Southwest 365 420 38,000  Level Washington Center
Sun 18:10:43 36.7439 -79.2831 218° Southwest 365 420 38,000  Level Washington Center
Sun 18:11:43 36.6683 -79.3597 219° Southwest 365 420 38,000  Level Washington Center
Sun 18:12:43 36.5908 -79.4386 219° Southwest 360 414 38,000  Level Washington Center
Sun 18:14:50 36.4203 -79.6011 217° Southwest 378 435 38,000  Level Atlanta Center
Sun 18:15:50 36.3397 -79.6803 218° Southwest 378 435 38,000  Level Atlanta Center
Sun 18:16:50 36.2611 -79.7592 219° Southwest 378 435 38,000  Level Atlanta Center
Sun 18:17:50 36.1825 -79.8381 219° Southwest 378 435 38,000  Level Atlanta Center
Sun 18:18:50 36.1119 -79.9083 219° Southwest 378 435 38,000  Level Atlanta Center
Sun 18:19:50 36.0247 -79.9847 215° Southwest 378 435 38,000  Level Atlanta Center
Sun 18:20:50 35.9178 -80.0336 200° South 392 451 38,000  Level Atlanta Center
Sun 18:21:50 35.8111 -80.0903 203° Southwest 412 474 38,000  Level Atlanta Center
Sun 18:22:50 35.6942 -80.1519 203° Southwest 417 480 38,000  Level Atlanta Center
Sun 18:23:50 35.5997 -80.2000 202° Southwest 417 480 38,000  Level Atlanta Center
Sun 18:24:50 35.4950 -80.2533 203° Southwest 411 473 38,000  Level Atlanta Center
Sun 18:25:50 35.3758 -80.3122 202° Southwest 411 473 38,000  Level Atlanta Center
Sun 18:26:50 35.2692 -80.3681 203° Southwest 411 473 38,000  Level Atlanta Center
Sun 18:28:48 35.0564 -80.4708 202° Southwest 413 475 38,000  Level Jacksonville Center
Sun 18:29:48 34.9592 -80.5167 201° Southwest 418 481 38,000  Level Jacksonville Center
Sun 18:30:48 34.8458 -80.5756 203° Southwest 430 495 38,000  Level Jacksonville Center
Sun 18:31:48 34.7319 -80.6292 201° Southwest 424 488 38,000 -100 Level Jacksonville Center
Sun 18:32:48 34.6203 -80.6800 201° Southwest 429 494 37,800 -600 Descending Jacksonville Center
Sun 18:33:48 34.5147 -80.7356 203° Southwest 457 526 36,800 -900 Descending Jacksonville Center
Sun 18:34:48 34.3889 -80.8067 205° Southwest 446 513 36,000 -400 Descending Jacksonville Center
Sun 18:35:48 34.2811 -80.8569 201° Southwest 431 496 36,000  Level Jacksonville Center
Sun 18:36:48 34.1794 -80.8994 199° South 413 475 36,000  Level Jacksonville Center
Sun 18:37:48 34.0678 -80.9547 202° Southwest 413 475 36,000  Level Jacksonville Center
Sun 18:38:48 33.9642 -81.0047 202° Southwest 433 498 36,000  Level Jacksonville Center
Sun 18:39:48 33.8400 -81.0647 202° Southwest 440 506 36,000  Level Jacksonville Center
Sun 18:40:48 33.7403 -81.1117 201° Southwest 440 506 36,000  Level Jacksonville Center
Sun 18:41:48 33.6306 -81.1689 203° Southwest 435 501 36,000  Level Jacksonville Center
Sun 18:42:48 33.5186 -81.2233 202° Southwest 435 501 36,000  Level Jacksonville Center
Sun 18:43:48 33.4044 -81.2803 203° Southwest 435 501 36,000  Level Jacksonville Center
Sun 18:44:48 33.2906 -81.3369 203° Southwest 435 501 36,000  Level Jacksonville Center
Sun 18:45:48 33.1783 -81.3911 202° Southwest 435 501 36,000  Level Jacksonville Center
Sun 18:46:48 33.0642 -81.4475 202° Southwest 435 501 36,000  Level Jacksonville Center
Sun 18:47:48 32.9458 -81.5064 203° Southwest 447 514 36,000  Level Jacksonville Center
Sun 18:48:48 32.8339 -81.5600 202° Southwest 447 514 36,000  Level Jacksonville Center
Sun 18:49:48 32.7194 -81.6161 202° Southwest 447 514 36,000  Level Jacksonville Center
Sun 18:50:48 32.5950 -81.6744 202° Southwest 447 514 36,000  Level Jacksonville Center
Sun 18:51:48 32.4786 -81.7253 200° South 447 514 36,000  Level Jacksonville Center
Sun 18:52:48 32.3661 -81.7514 191° South 461 531 36,000  Level Jacksonville Center
Sun 18:53:48 32.2264 -81.7825 191° South 467 537 36,000  Level Jacksonville Center
Sun 18:54:48 32.1139 -81.8058 190° South 467 537 36,000  Level Jacksonville Center
Sun 18:55:48 31.9783 -81.8344 190° South 459 528 36,000  Level Jacksonville Center
Sun 18:56:48 31.8533 -81.8628 191° South 459 528 36,000  Level Jacksonville Center
Sun 18:57:48 31.7450 -81.8886 191° South 452 520 36,000  Level Jacksonville Center
Sun 18:58:48 31.6136 -81.9167 190° South 447 514 36,000  Level Jacksonville Center
Sun 18:59:48 31.5033 -81.9422 191° South 447 514 36,000  Level Jacksonville Center
Sun 19:00:48 31.3844 -81.9678 190° South 447 514 36,000  Level Jacksonville Center
Sun 19:01:48 31.2633 -81.9933 190° South 447 514 36,000  Level Jacksonville Center
Sun 19:02:48 31.1406 -82.0236 192° South 447 514 36,000  Level Jacksonville Center
Sun 19:03:48 31.0194 -82.0467 189° South 447 514 36,000  Level Jacksonville Center
Sun 19:04:48 30.9008 -82.0767 192° South 447 514 36,000  Level Jacksonville Center
Sun 19:05:48 30.7819 -82.1019 190° South 447 514 36,000  Level Jacksonville Center
Sun 19:06:48 30.6608 -82.1294 191° South 447 514 36,000  Level Jacksonville Center
Sun 19:07:48 30.5419 -82.1522 189° South 447 514 36,000  Level Jacksonville Center
Sun 19:08:48 30.4231 -82.1747 189° South 447 514 36,000  Level Jacksonville Center
Sun 19:09:48 30.3022 -82.2019 191° South 447 514 36,000  Level Jacksonville Center
Sun 19:10:48 30.1792 -82.2269 190° South 447 514 36,000  Level Jacksonville Center
Sun 19:11:48 30.0539 -82.2303 181° South 447 514 36,000 -600 Level Jacksonville Center
Sun 19:12:48 29.9142 -82.2358 182° South 459 528 34,800 -2,050 Descending Jacksonville Center
Sun 19:13:48 29.7867 -82.2392 181° South 459 528 31,900 -2,550 Descending Jacksonville Center
Sun 19:14:48 29.6719 -82.2375 179° South 459 528 29,700 -2,200 Descending Jacksonville Center
Sun 19:15:48 29.5508 -82.2408 181° South 453 521 27,500 -2,200 Descending Jacksonville Center
Sun 19:16:48 29.4339 -82.2439 181° South 442 509 25,300 -1,500 Descending Jacksonville Center
Sun 19:17:48 29.3169 -82.2447 180° South 431 496 24,500 -1,950 Descending Jacksonville Center
Sun 19:18:48 29.1961 -82.2503 182° South 431 496 21,400 -2,450 Descending Jacksonville Center
Sun 19:19:48 29.0853 -82.2511 180° South 415 478 19,600 -1,700 Descending Jacksonville Center
Sun 19:20:48 28.9769 -82.2542 181° South 403 464 18,000 -2,100 Descending Jacksonville Center
Sun 19:21:48 28.8558 -82.2572 181° South 398 458 15,400 -1,560 Descending Jacksonville Center
Sun 19:24:08 28.6167 -82.2500 178° South 352 405 12,800 -1,080 Descending Tampa TRACON
Sun 19:25:08 28.5167 -82.2500 180° South 350 403 11,800 -1,000 Descending Tampa TRACON
Sun 19:26:08 28.4333 -82.2500 180° South 345 397 10,800 -900 Descending Tampa TRACON
Sun 19:27:08 28.3333 -82.2833 196° South 312 359 10,000 -400 Descending Tampa TRACON
Sun 19:28:08 28.2667 -82.3167 204° Southwest 288 331 10,000 -750 Level Tampa TRACON
Sun 19:29:08 28.1833 -82.3500 199° South 284 327 8,500 -1,450 Descending Tampa TRACON
Sun 19:30:08 28.1167 -82.3667 192° South 281 323 7,100 -1,364 Descending Tampa TRACON
Sun 19:31:20 28.0167 -82.4000 196° South 276 318 5,500 -1,000 Descending Tampa TRACON
Sun 19:32:14 27.9667 -82.4167 196° South 253 291 5,000 -263 Descending Tampa TRACON
Sun 19:33:14 27.9000 -82.4167 180° South 223 257 5,000 -524 Level Tampa TRACON
Sun 19:34:20 27.8333 -82.4333 192° South 214 246 3,900 -1,134 Descending Tampa TRACON
Sun 19:35:21 27.7833 -82.4667 211° Southwest 212 244 2,600 -716 Descending Tampa TRACON
Sun 19:36:09 27.7833 -82.5167 270° West 214 246 2,600 56 Level Tampa TRACON
Sun 19:37:09 27.8333 -82.5500 329° Northwest 204 235 2,700 -400 Climbing Tampa TRACON
Sun 19:38:09 27.8833 -82.5500 360° North 179 206 1,800 -950 Descending Tampa TRACON
Sun 19:39:09 27.9333 -82.5500 360° North 150 173 800 -895 Descending Tampa TRACON
Sun 19:40:03 27.9667 -82.5500 360° North 138 159 100 -778 Descending Tampa TRACON
Sun 19:42:00 27.9755 -82.5332 350° North  Level Estimated
Sun 19:49:00 27.9755 -82.5332 350° North  Level Estimated

Login

Don't have an account? Register now (free) for customized features, flight alerts, and more!